createdAt,value
2023-04-17T00:02:03.272Z,12.13
2023-04-17T00:04:49.119Z,10.40
2023-04-17T00:07:34.497Z,15.00
2023-04-17T00:10:18.583Z,13.17
2023-04-17T00:13:04.134Z,15.07
2023-04-17T00:15:48.087Z,14.13
2023-04-17T00:18:32.241Z,12.03
2023-04-17T00:21:17.505Z,13.17
2023-04-17T00:24:01.620Z,12.83
2023-04-17T00:26:45.780Z,13.67
2023-04-17T00:29:29.752Z,12.73
2023-04-17T00:32:13.579Z,13.60
2023-04-17T00:34:57.498Z,15.00
2023-04-17T00:37:42.720Z,14.37
2023-04-17T00:40:26.963Z,13.30
2023-04-17T00:43:10.877Z,13.27
2023-04-17T00:45:55.441Z,19.03
2023-04-17T00:48:41.054Z,23.43
2023-04-17T00:51:25.133Z,26.67
2023-04-17T00:54:11.271Z,15.43
2023-04-17T00:56:57.801Z,11.67
2023-04-17T00:59:44.549Z,13.10
2023-04-17T01:02:28.628Z,13.50
2023-04-17T01:05:12.791Z,15.60
2023-04-17T01:07:58.979Z,16.77
2023-04-17T01:10:44.558Z,12.07
2023-04-17T01:13:28.514Z,15.07
2023-04-17T01:16:13.029Z,16.27
2023-04-17T01:18:57.086Z,14.23
2023-04-17T01:21:42.699Z,10.37
2023-04-17T01:24:27.977Z,9.83
2023-04-17T01:27:13.856Z,11.83
2023-04-17T01:30:00.409Z,14.07
2023-04-17T01:32:48.522Z,19.83
2023-04-17T01:35:32.480Z,22.13
2023-04-17T01:38:16.351Z,21.53
2023-04-17T01:41:08.336Z,26.50
2023-04-17T01:43:52.303Z,26.07
2023-04-17T01:46:36.759Z,29.17
2023-04-17T01:49:20.911Z,27.07
2023-04-17T01:52:05.139Z,25.17
2023-04-17T01:54:49.117Z,28.70
2023-04-17T01:57:36.473Z,28.17
2023-04-17T02:00:22.905Z,29.40
2023-04-17T02:03:07.182Z,29.03
2023-04-17T02:05:51.366Z,31.57
2023-04-17T02:08:35.804Z,49.70
2023-04-17T02:11:20.959Z,65.17
2023-04-17T02:14:09.748Z,64.60
2023-04-17T02:16:53.916Z,72.73
2023-04-17T02:19:37.823Z,67.10
2023-04-17T02:22:22.126Z,69.27
2023-04-17T02:25:06.649Z,67.43
2023-04-17T02:27:50.843Z,61.27
2023-04-17T02:30:36.009Z,64.67
2023-04-17T02:33:20.125Z,77.97
2023-04-17T02:36:04.990Z,66.63
2023-04-17T02:38:54.839Z,61.43
2023-04-17T02:41:38.892Z,59.10
2023-04-17T02:44:23.328Z,59.13
2023-04-17T02:47:09.026Z,62.47
2023-04-17T02:49:53.057Z,60.03
2023-04-17T02:52:37.113Z,55.93
2023-04-17T02:55:22.445Z,60.97
2023-04-17T02:58:06.447Z,61.80
2023-04-17T03:00:50.588Z,62.87
2023-04-17T03:03:42.195Z,59.00
2023-04-17T03:06:30.326Z,57.33
2023-04-17T03:09:15.083Z,57.10
2023-04-17T03:11:59.026Z,56.87
2023-04-17T03:14:44.024Z,50.27
2023-04-17T03:17:28.075Z,51.47
2023-04-17T03:20:16.002Z,55.17
2023-04-17T03:23:01.380Z,48.07
2023-04-17T03:25:45.445Z,46.30
2023-04-17T03:28:31.411Z,48.17
2023-04-17T03:31:15.585Z,45.73
2023-04-17T03:33:59.641Z,44.67
2023-04-17T03:36:46.717Z,41.10
2023-04-17T03:39:32.115Z,44.47
2023-04-17T03:42:17.952Z,43.30
2023-04-17T03:45:03.424Z,46.57
2023-04-17T03:47:50.459Z,47.13
2023-04-17T03:50:35.217Z,47.30
2023-04-17T03:53:21.012Z,44.97
2023-04-17T03:56:06.824Z,46.63
2023-04-17T03:58:54.882Z,42.57
2023-04-17T04:01:39.696Z,41.73
2023-04-17T04:04:31.516Z,38.27
2023-04-17T04:07:23.051Z,24.03
2023-04-17T04:10:10.651Z,24.30
2023-04-17T04:12:54.788Z,21.73
2023-04-17T04:15:38.966Z,22.50
2023-04-17T04:18:23.252Z,23.80
2023-04-17T04:21:07.443Z,26.10
2023-04-17T04:23:56.230Z,21.70
2023-04-17T04:26:42.438Z,22.77
2023-04-17T04:29:26.424Z,24.13
2023-04-17T04:32:15.988Z,25.80
2023-04-17T04:35:03.209Z,22.73
2023-04-17T04:37:47.662Z,23.43
2023-04-17T04:40:36.127Z,23.43
2023-04-17T04:43:22.575Z,25.60
2023-04-17T04:46:11.402Z,26.07
2023-04-17T04:49:00.335Z,25.73
2023-04-17T04:51:44.544Z,27.60
2023-04-17T04:54:29.648Z,22.97
2023-04-17T04:57:16.925Z,25.87
2023-04-17T05:00:09.103Z,23.73
2023-04-17T05:02:56.851Z,26.87
2023-04-17T05:05:43.536Z,28.47
2023-04-17T05:08:30.618Z,30.77
2023-04-17T05:11:25.373Z,34.67
2023-04-17T05:14:09.702Z,31.80
2023-04-17T05:16:57.083Z,23.67
2023-04-17T05:19:41.725Z,19.57
2023-04-17T05:22:28.381Z,20.60
2023-04-17T05:25:24.952Z,20.20
2023-04-17T05:28:12.634Z,21.40
2023-04-17T05:30:58.881Z,18.93
2023-04-17T05:33:50.819Z,19.73
2023-04-17T05:36:34.628Z,16.77
2023-04-17T05:39:21.683Z,19.00
2023-04-17T05:42:06.020Z,21.33
2023-04-17T05:44:50.237Z,22.00
2023-04-17T05:47:35.166Z,21.40
2023-04-17T05:50:20.701Z,19.43
2023-04-17T05:53:05.012Z,18.50
2023-04-17T05:55:53.572Z,20.53
2023-04-17T05:58:38.573Z,35.03
2023-04-17T06:01:23.560Z,24.47
2023-04-17T06:04:10.822Z,19.30
2023-04-17T06:06:56.693Z,21.47
2023-04-17T06:09:41.448Z,18.80
2023-04-17T06:12:27.049Z,19.57
2023-04-17T06:15:12.441Z,26.43
2023-04-17T06:17:56.989Z,30.83
2023-04-17T06:20:42.372Z,28.10
2023-04-17T06:23:27.996Z,28.13
2023-04-17T06:26:12.412Z,26.80
2023-04-17T06:28:56.845Z,22.33
2023-04-17T06:31:42.225Z,23.77
2023-04-17T06:34:26.703Z,23.53
2023-04-17T06:37:11.567Z,24.73
2023-04-17T06:39:57.234Z,28.63
2023-04-17T06:42:41.399Z,31.80
2023-04-17T06:45:29.848Z,26.80
2023-04-17T06:48:13.933Z,39.90
2023-04-17T06:50:58.290Z,33.93
2023-04-17T06:53:42.244Z,22.97
2023-04-17T06:56:27.632Z,23.67
2023-04-17T06:59:12.131Z,18.67
2023-04-17T07:01:56.316Z,26.07
2023-04-17T07:04:40.560Z,18.47
2023-04-17T07:07:24.491Z,29.20
2023-04-17T07:10:09.188Z,19.33
2023-04-17T07:12:55.390Z,20.30
2023-04-17T07:15:39.180Z,23.40
2023-04-17T07:18:23.533Z,30.47
2023-04-17T07:21:07.679Z,32.10
2023-04-17T07:23:51.690Z,23.30
2023-04-17T07:26:37.077Z,24.27
2023-04-17T07:29:22.531Z,19.87
2023-04-17T07:32:07.438Z,19.83
2023-04-17T07:34:51.814Z,20.20
2023-04-17T07:37:37.313Z,16.73
2023-04-17T07:40:21.483Z,14.10
2023-04-17T07:43:05.496Z,16.40
2023-04-17T07:45:51.207Z,19.80
2023-04-17T07:48:35.206Z,16.13
2023-04-17T07:51:19.426Z,17.93
2023-04-17T07:54:03.739Z,21.43
2023-04-17T07:56:49.534Z,18.23
2023-04-17T07:59:33.442Z,19.80
2023-04-17T08:02:20.704Z,19.83
2023-04-17T08:05:07.149Z,20.27
2023-04-17T08:07:51.385Z,22.13
2023-04-17T08:10:35.650Z,27.30
2023-04-17T08:13:19.634Z,20.43
2023-04-17T08:16:04.358Z,27.93
2023-04-17T08:18:49.906Z,17.80
2023-04-17T08:21:34.266Z,15.93
2023-04-17T08:24:19.944Z,16.23
2023-04-17T08:27:05.341Z,18.27
2023-04-17T08:29:49.326Z,21.97
2023-04-17T08:32:39.177Z,16.53
2023-04-17T08:35:25.513Z,19.23
2023-04-17T08:38:10.521Z,20.47
2023-04-17T08:40:59.116Z,23.13
2023-04-17T08:43:44.732Z,20.40
2023-04-17T08:46:30.566Z,12.93
2023-04-17T08:49:14.787Z,20.27
2023-04-17T08:52:03.424Z,23.17
2023-04-17T08:54:49.850Z,16.77
2023-04-17T08:57:35.143Z,25.37
2023-04-17T09:00:25.574Z,16.43
2023-04-17T09:03:12.631Z,19.33
2023-04-17T09:05:58.790Z,20.37
2023-04-17T09:08:57.941Z,19.87
2023-04-17T09:11:41.868Z,18.50
2023-04-17T09:14:32.589Z,16.03
2023-04-17T09:17:18.419Z,14.13
2023-04-17T09:20:07.423Z,17.93
2023-04-17T09:23:01.145Z,18.17
2023-04-17T09:25:46.939Z,13.80
2023-04-17T09:28:35.583Z,15.40
2023-04-17T09:31:27.538Z,12.77
2023-04-17T09:34:13.063Z,13.93
2023-04-17T09:36:57.048Z,12.03
2023-04-17T09:39:56.655Z,14.03
2023-04-17T09:42:55.431Z,11.40
2023-04-17T09:45:42.676Z,11.57
2023-04-17T09:48:27.440Z,12.97
2023-04-17T09:51:12.020Z,13.37
2023-04-17T09:53:57.783Z,12.47
2023-04-17T09:56:42.335Z,9.23
2023-04-17T09:59:28.920Z,18.20
2023-04-17T10:02:15.939Z,12.80
2023-04-17T10:05:02.788Z,11.67
2023-04-17T10:07:48.019Z,11.23
2023-04-17T10:10:34.206Z,12.13
2023-04-17T10:13:21.293Z,11.03
2023-04-17T10:16:07.543Z,14.30
2023-04-17T10:19:26.452Z,13.87
2023-04-17T10:22:34.241Z,13.37
2023-04-17T10:25:20.125Z,13.10
2023-04-17T10:28:04.699Z,11.80
2023-04-17T10:30:54.721Z,15.63
2023-04-17T10:33:50.006Z,16.80
2023-04-17T10:36:52.612Z,15.77
2023-04-17T10:39:54.360Z,11.27
2023-04-17T10:42:38.386Z,13.43
2023-04-17T10:45:22.669Z,15.63
2023-04-17T10:48:06.767Z,19.20
2023-04-17T10:50:52.213Z,23.27
2023-04-17T10:53:44.384Z,12.30
2023-04-17T10:56:30.906Z,12.53
2023-04-17T10:59:16.982Z,13.90
2023-04-17T11:02:06.855Z,16.87
2023-04-17T11:05:07.086Z,22.73
2023-04-17T11:07:52.865Z,11.57
2023-04-17T11:10:38.303Z,15.47
2023-04-17T11:13:22.619Z,24.10
2023-04-17T11:16:07.497Z,15.70
2023-04-17T11:18:52.265Z,14.87
2023-04-17T11:21:40.939Z,13.97
2023-04-17T11:24:27.188Z,14.70
2023-04-17T11:27:11.347Z,18.50
2023-04-17T11:29:55.236Z,20.73
2023-04-17T11:32:39.127Z,15.53
2023-04-17T11:35:28.729Z,14.13
2023-04-17T11:38:14.792Z,13.03
2023-04-17T11:41:01.369Z,12.80
2023-04-17T11:43:46.899Z,13.57
2023-04-17T11:46:31.002Z,12.20
2023-04-17T11:49:14.967Z,14.27
2023-04-17T11:52:02.159Z,9.83
2023-04-17T11:54:46.080Z,12.27
2023-04-17T11:57:42.315Z,9.70
2023-04-17T12:00:29.973Z,8.60
2023-04-17T12:03:33.969Z,10.20
2023-04-17T12:06:18.411Z,12.47
2023-04-17T12:09:03.025Z,14.30
2023-04-17T12:11:46.802Z,15.00
2023-04-17T12:14:32.429Z,13.23
2023-04-17T12:17:16.380Z,10.00
2023-04-17T12:20:03.418Z,9.70
2023-04-17T12:22:48.706Z,13.17
2023-04-17T12:25:33.085Z,13.50
2023-04-17T12:28:16.924Z,11.20
2023-04-17T12:31:02.059Z,16.60
2023-04-17T12:33:45.875Z,11.53
2023-04-17T12:36:29.715Z,16.40
2023-04-17T12:39:14.129Z,13.10
2023-04-17T12:41:57.995Z,12.40
2023-04-17T12:44:41.917Z,17.00
2023-04-17T12:47:27.452Z,14.77
2023-04-17T12:50:12.742Z,15.43
2023-04-17T12:52:56.641Z,7.20
2023-04-17T12:55:41.332Z,9.20
2023-04-17T12:58:25.576Z,10.93
2023-04-17T13:01:09.399Z,13.17
2023-04-17T13:03:55.013Z,11.70
2023-04-17T13:06:39.137Z,11.87
2023-04-17T13:09:22.902Z,13.83
2023-04-17T13:12:07.484Z,16.13
2023-04-17T13:14:51.420Z,15.03
2023-04-17T13:17:35.893Z,12.43
2023-04-17T13:20:21.466Z,12.73
2023-04-17T13:23:05.399Z,13.00
2023-04-17T13:25:49.788Z,8.83
2023-04-17T13:28:33.936Z,13.37
2023-04-17T13:31:18.172Z,15.03
2023-04-17T13:34:02.920Z,14.20
2023-04-17T13:36:49.040Z,14.90
2023-04-17T13:39:33.027Z,14.70
2023-04-17T13:42:17.671Z,16.90
2023-04-17T13:45:01.733Z,14.33
2023-04-17T13:47:49.368Z,19.97
2023-04-17T13:50:33.353Z,12.73
2023-04-17T13:53:18.862Z,12.90
2023-04-17T13:56:02.850Z,15.17
2023-04-17T13:58:48.055Z,12.63
2023-04-17T14:01:32.111Z,16.67
2023-04-17T14:04:16.376Z,14.67
2023-04-17T14:07:00.754Z,14.87
2023-04-17T14:09:46.348Z,13.70
2023-04-17T14:12:30.501Z,18.87
2023-04-17T14:15:14.565Z,22.43
2023-04-17T14:17:59.368Z,21.50
2023-04-17T14:20:43.522Z,13.87
2023-04-17T14:23:27.646Z,15.57
2023-04-17T14:26:13.516Z,12.87
2023-04-17T14:28:57.642Z,16.17
2023-04-17T14:31:41.786Z,16.97
2023-04-17T14:34:26.015Z,15.80
2023-04-17T14:37:10.099Z,19.50
2023-04-17T14:39:54.327Z,13.50
2023-04-17T14:42:51.295Z,12.73
2023-04-17T14:45:38.049Z,25.80
2023-04-17T14:48:23.803Z,15.77
2023-04-17T14:51:12.604Z,20.37
2023-04-17T14:53:56.635Z,19.67
2023-04-17T14:56:41.209Z,29.83
2023-04-17T14:59:28.086Z,17.57
2023-04-17T15:04:56.743Z,20.30
2023-04-17T15:07:40.720Z,16.13
2023-04-17T15:10:24.867Z,19.37
2023-04-17T15:13:08.914Z,12.90
2023-04-17T15:15:55.307Z,13.53
2023-04-17T15:18:39.963Z,13.30
2023-04-17T15:21:24.133Z,15.03
2023-04-17T15:24:08.561Z,15.40
2023-04-17T15:26:52.683Z,11.63
2023-04-17T15:29:36.729Z,19.77
2023-04-17T15:32:22.330Z,17.77
2023-04-17T15:35:07.314Z,17.03
2023-04-17T15:37:51.445Z,16.23
2023-04-17T15:40:35.714Z,19.60
2023-04-17T15:43:20.071Z,13.70
2023-04-17T15:46:05.040Z,14.00
2023-04-17T15:49:04.995Z,17.40
2023-04-17T15:51:52.252Z,14.80
2023-04-17T15:54:36.439Z,16.73
2023-04-17T15:57:20.569Z,23.63
2023-04-17T16:00:05.197Z,18.77
2023-04-17T16:02:54.745Z,19.33
2023-04-17T16:05:40.318Z,22.57
2023-04-17T16:08:24.385Z,17.47
2023-04-17T16:11:08.589Z,25.30
2023-04-17T16:13:52.695Z,21.13
2023-04-17T16:16:36.752Z,14.90
2023-04-17T16:19:20.819Z,21.23
2023-04-17T16:22:06.343Z,21.23
2023-04-17T16:24:50.274Z,26.63
2023-04-17T16:27:35.019Z,21.63
2023-04-17T16:30:19.196Z,19.77
2023-04-17T16:33:03.281Z,28.40
2023-04-17T16:35:47.315Z,21.70
2023-04-17T16:38:32.760Z,27.33
2023-04-17T16:41:16.590Z,24.53
2023-04-17T16:44:00.361Z,26.20
2023-04-17T16:47:05.591Z,22.10
2023-04-17T16:49:48.085Z,23.17
2023-04-17T16:52:32.084Z,23.87
2023-04-17T16:55:17.736Z,22.00
2023-04-17T16:58:04.406Z,26.47
2023-04-17T17:00:49.262Z,22.80
2023-04-17T17:03:39.118Z,22.43
2023-04-17T17:06:23.060Z,22.17
2023-04-17T17:09:06.914Z,24.30
2023-04-17T17:11:52.427Z,26.07
2023-04-17T17:14:36.320Z,18.33
2023-04-17T17:17:20.816Z,34.57
2023-04-17T17:20:04.987Z,25.93
2023-04-17T17:22:49.598Z,25.57
2023-04-17T17:25:33.573Z,27.63
2023-04-17T17:28:18.937Z,24.73
2023-04-17T17:31:03.894Z,18.50
2023-04-17T17:33:50.133Z,20.57
2023-04-17T17:36:34.216Z,27.43
2023-04-17T17:39:18.057Z,21.03
2023-04-17T17:42:04.333Z,21.27
2023-04-17T17:44:49.516Z,20.43
2023-04-17T17:47:33.558Z,21.80
2023-04-17T17:50:17.852Z,24.23
2023-04-17T17:53:01.918Z,20.20
2023-04-17T17:55:52.116Z,23.17
2023-04-17T17:58:36.162Z,19.67
2023-04-17T18:01:22.760Z,21.80
2023-04-17T18:04:07.404Z,17.67
2023-04-17T18:06:51.726Z,23.07
2023-04-17T18:09:36.449Z,23.60
2023-04-17T18:12:20.415Z,25.80
2023-04-17T18:15:04.336Z,19.90
2023-04-17T18:17:49.980Z,23.27
2023-04-17T18:20:38.697Z,24.10
2023-04-17T18:23:22.602Z,19.30
2023-04-17T18:26:06.656Z,16.40
2023-04-17T18:28:51.080Z,22.50
2023-04-17T18:31:35.065Z,18.93
2023-04-17T18:34:23.375Z,17.47
2023-04-17T18:37:07.847Z,18.53
2023-04-17T18:39:53.164Z,15.77
2023-04-17T18:42:37.072Z,20.77
2023-04-17T18:45:20.955Z,22.97
2023-04-17T18:48:05.074Z,17.77
2023-04-17T18:50:51.168Z,20.43
2023-04-17T18:53:35.172Z,22.37
2023-04-17T18:56:19.249Z,17.83
2023-04-17T18:59:03.653Z,20.90
2023-04-17T19:01:48.493Z,16.83
2023-04-17T19:04:32.855Z,18.63
2023-04-17T19:07:19.129Z,22.20
2023-04-17T19:10:05.531Z,17.50
2023-04-17T19:12:49.661Z,23.03
2023-04-17T19:15:33.944Z,18.87
2023-04-17T19:18:18.184Z,20.37
2023-04-17T19:21:02.280Z,16.50
2023-04-17T19:23:48.172Z,16.93
2023-04-17T19:26:32.505Z,21.23
2023-04-17T19:29:17.442Z,18.90
2023-04-17T19:32:01.715Z,19.97
2023-04-17T19:34:46.405Z,20.97
2023-04-17T19:37:30.400Z,22.47
2023-04-17T19:40:24.387Z,20.47
2023-04-17T19:43:09.649Z,16.77
2023-04-17T19:45:53.695Z,14.93
2023-04-17T19:48:38.507Z,18.23
2023-04-17T19:51:23.554Z,24.10
2023-04-17T19:54:08.091Z,20.07
2023-04-17T19:56:53.827Z,21.03
2023-04-17T19:59:38.103Z,19.33
2023-04-17T20:02:22.448Z,20.00
2023-04-17T20:05:07.192Z,19.30
2023-04-17T20:07:51.165Z,33.50
2023-04-17T20:10:35.108Z,24.07
2023-04-17T20:13:20.569Z,20.40
2023-04-17T20:16:04.395Z,20.73
2023-04-17T20:18:49.788Z,25.20
2023-04-17T20:21:33.685Z,23.67
2023-04-17T20:24:17.551Z,24.73
2023-04-17T20:27:02.002Z,19.13
2023-04-17T20:29:47.289Z,28.43
2023-04-17T20:32:31.199Z,21.50
2023-04-17T20:35:15.199Z,19.73
2023-04-17T20:37:59.105Z,26.00
2023-04-17T20:40:43.430Z,23.77
2023-04-17T20:43:27.415Z,19.60
2023-04-17T20:46:12.809Z,21.90
2023-04-17T20:48:56.684Z,19.70
2023-04-17T20:51:40.744Z,21.60
2023-04-17T20:54:26.339Z,20.30
2023-04-17T20:57:10.465Z,22.40
2023-04-17T20:59:54.342Z,22.60
2023-04-17T21:02:39.576Z,25.70
2023-04-17T21:05:23.603Z,23.13
2023-04-17T21:08:07.732Z,34.27
2023-04-17T21:10:51.624Z,31.37
2023-04-17T21:13:35.903Z,25.50
2023-04-17T21:16:19.686Z,18.70
2023-04-17T21:19:04.837Z,22.97
2023-04-17T21:21:48.627Z,28.20
2023-04-17T21:24:32.423Z,25.07
2023-04-17T21:27:16.390Z,22.93
2023-04-17T21:30:00.234Z,27.43
2023-04-17T21:32:44.486Z,25.03
2023-04-17T21:35:29.761Z,26.67
2023-04-17T21:38:13.821Z,25.17
2023-04-17T21:40:57.997Z,26.70
2023-04-17T21:43:41.862Z,27.10
2023-04-17T21:46:25.868Z,25.47
2023-04-17T21:49:09.665Z,25.90
2023-04-17T21:51:54.975Z,25.60
2023-04-17T21:54:38.999Z,26.13
2023-04-17T21:57:22.909Z,19.17
2023-04-17T22:00:11.636Z,22.53
2023-04-17T22:02:55.996Z,22.53
2023-04-17T22:05:40.206Z,23.00
2023-04-17T22:08:26.240Z,21.83
2023-04-17T22:11:10.339Z,24.83
2023-04-17T22:13:54.407Z,22.90
2023-04-17T22:16:38.493Z,27.20
2023-04-17T22:19:22.476Z,25.50
2023-04-17T22:22:06.453Z,27.37
2023-04-17T22:24:51.897Z,30.77
2023-04-17T22:27:35.845Z,28.73
2023-04-17T22:30:19.845Z,25.33
2023-04-17T22:33:03.852Z,25.23
2023-04-17T22:35:47.671Z,19.77
2023-04-17T22:38:31.597Z,29.83
2023-04-17T22:41:16.985Z,26.77
2023-04-17T22:44:00.759Z,26.47
2023-04-17T22:46:44.849Z,22.60
2023-04-17T22:49:28.722Z,23.43
2023-04-17T22:52:12.583Z,26.07
2023-04-17T22:54:56.535Z,31.93
2023-04-17T22:57:41.903Z,25.63
2023-04-17T23:00:26.095Z,34.00
2023-04-17T23:03:10.048Z,28.97
2023-04-17T23:05:54.651Z,19.83
2023-04-17T23:08:38.633Z,20.80
2023-04-17T23:11:22.529Z,22.67
2023-04-17T23:14:07.924Z,28.07
2023-04-17T23:16:52.906Z,28.53
2023-04-17T23:19:36.733Z,26.00
2023-04-17T23:22:20.589Z,21.10
2023-04-17T23:25:04.838Z,21.97
2023-04-17T23:27:48.791Z,21.70
2023-04-17T23:30:34.108Z,21.83
2023-04-17T23:33:17.943Z,27.67
2023-04-17T23:36:01.772Z,16.60
2023-04-17T23:38:45.698Z,27.13
2023-04-17T23:41:29.728Z,29.60
2023-04-17T23:44:13.988Z,23.50
2023-04-17T23:47:00.059Z,21.43
2023-04-17T23:49:44.096Z,23.83
2023-04-17T23:52:28.682Z,21.73
2023-04-17T23:55:12.556Z,22.97
2023-04-17T23:57:57.067Z,28.80
